Hlavní strana
METAR-TAF:

METAR-TAF

Letiště :

Florø, Norsko

zeměpisná šířka: 61-35N, zeměpisná délka: 005-02E, výška: 0 m

Aktuální stav počasí

Zpráva byla vytvořena před 37 minutami, v 19:20 UTC
Severozápadní vítr 7 kt
Teplota 3°C
Vlhkost vzduchu 65%
Tlak 1027 hPa
Viditelnost 10 km a více
Skoro jasno ve výšce 1500 ft
Polojasno ve výšce 4000 ft

METAR: ENFL 131920Z 32007KT 9999 FEW015 SCT040 03/M03 Q1027

Čas: 21:57 (19:57 UTC)

Předpověď počasí

Zpráva byla vytvořena před 2 hodinami a 57 minutami, v 17:00 UTC
Předpověď platná od 13 v 18 UTC do 14 v 03 UTC
vítr z různých směrů 7 kt
Viditelnost 10 km a více
Skoro jasno ve výšce 2500 ft
Oblačno až skoro zataženo ve výšce 4000 ft
Dočasný
od 14 v 00 UTC do 14 v 03 UTC
Jižní vítr 10 kt
Viditelnost: 2000 m
Oblačno až skoro zataženo ve výšce 800 ft
déšť, sníh

TAF: ENFL 131700Z 1318/1403 VRB07KT 9999 FEW025 BKN040 TEMPO 1400/1403 18010KT 2000 RASN BKN008

Stav a předpovědi počasí z více než 4 000 letišť (zprávy METAR a TAF).

Červené a žluté tečky na mapě představují dostupné meteorologické stanice.

Když kurzor umístíte na tečku, zobrazí se název stanice.

Pak kliknutím zobrazíte stav a předpověď počasí.

Chcete-li změnit mapu, kliknutím na zelené tlačítko se znaménkem +mapu přiblížíte, kliknutím na zelené tlačítko se znaménkem – mapu oddálíte a kliknutím na zelené šipky přejdete na sousední mapy.


METAR-TAF: